Terminal Aerodrome Forecast
Issued by NWS

Home | Current Version | Previous Version | Text Only | Print | Product List | Glossary On
Versions: 1 2 3 4 5 6 7 8 9 10 11 12 13 14 15 16 17 18 19 20 21 22 23 24 25
000
FTUS46 KLOX 190800 AAA
TAFLAX
TAF AMD
KLAX 190858Z 1909/2012 26008KT P6SM SCT015
     FM191000 23006KT P6SM OVC012
     FM191500 23006KT P6SM OVC020
     FM191800 23006KT P6SM OVC025
     FM192100 25010KT P6SM BKN025
     FM200300 26009KT P6SM OVC018
     FM200900 VRB03KT P6SM OVC015=

USA.gov is the U.S. government's official web portal to all federal, state and local government web resources and services.